Hauptseite
METAR-TAF:

METAR-TAF

Flughäfen :

Durham Tees Valley Airport

Durham, England

Breite: 54-31N, Länge: 001-25W, Höhe: 37 m

Beobachtung

Neuester Wetterbericht von vor 14 Minuten, um 19:20 UTC
Wind 11 kt aus West/Südwest
Temperatur 14°C
Luftfeuchtigkeit 51%
Luftdruck 1016 hPa
Sichtweite 10 km oder mehr
Leicht bewölkt in der Höhe von 4500 ft

METAR: EGNV 221920Z 24011KT 9999 FEW045 14/04 Q1016

Zeit: 20:34 (19:34 UTC)

Prognose

Neuester Wetterbericht von vor 2 Stunden und 33 Minuten, um 17:01 UTC
Gültige Prognose vom 22 um 18 UTC bis 22 um 21 UTC
Wind 9 kt aus West
Sichtweite 10 km oder mehr
Leicht bewölkt in der Höhe von 4000 ft

TAF: EGNV 221701Z 2218/2221 26009KT 9999 FEW040

Wetterbeobachtungen und Prognosen von mehr als 4000 Flughäfen (METAR und TAF Bericht).

Die verfügbaren Stationen werden durch gelbe und rote Markierungen auf der Karte dargestellt.

Führen Sie die Maus auf sie, um den Namen der Station zu sehen.

Darauf klicken, um die Beobachtung von Wetterbeobachtungen und Prognosen zu sehen.

Um die Karte zu ändern : klicken Sie auf den grünen Tasten mit einem schwarzen Kreuz Zum Vergrößern, auf den grünen Button mit einem Gedankenstrich zu verkleinern, oder auf die grünen Pfeile für benachbarte Karten.


METAR-TAF: